createdAt,value
2017-09-05T00:01:55.868Z,19.30
2017-09-05T00:04:21.929Z,19.67
2017-09-05T00:06:47.998Z,19.20
2017-09-05T00:12:40.585Z,20.17
2017-09-05T00:15:10.569Z,19.47
2017-09-05T00:17:51.578Z,18.70
2017-09-05T00:23:18.085Z,19.30
2017-09-05T00:25:44.145Z,18.07
2017-09-05T00:28:10.212Z,18.43
2017-09-05T00:30:36.250Z,20.13
2017-09-05T00:33:02.270Z,20.00
2017-09-05T00:35:28.325Z,19.50
2017-09-05T00:37:54.384Z,20.47
2017-09-05T00:40:20.438Z,19.43
2017-09-05T00:42:46.494Z,19.70
2017-09-05T00:45:12.542Z,18.33
2017-09-05T00:47:38.598Z,20.63
2017-09-05T00:50:04.642Z,19.20
2017-09-05T00:52:30.697Z,17.53
2017-09-05T00:54:56.713Z,18.60
2017-09-05T00:57:22.738Z,18.70
2017-09-05T00:59:48.793Z,19.80
2017-09-05T01:02:14.863Z,18.40
2017-09-05T01:04:40.909Z,19.47
2017-09-05T01:07:06.981Z,20.00
2017-09-05T01:09:33.021Z,19.20
2017-09-05T01:11:59.045Z,18.70
2017-09-05T01:14:25.105Z,17.97
2017-09-05T01:16:51.137Z,19.03
2017-09-05T01:19:17.177Z,19.27
2017-09-05T01:21:43.210Z,18.10
2017-09-05T01:24:09.232Z,18.20
2017-09-05T01:26:35.259Z,19.20
2017-09-05T01:29:01.318Z,20.63
2017-09-05T01:31:27.366Z,18.83
2017-09-05T01:33:53.412Z,18.17
2017-09-05T01:36:19.440Z,19.17
2017-09-05T01:38:45.477Z,19.30
2017-09-05T01:41:11.501Z,18.90
2017-09-05T01:43:37.520Z,20.20
2017-09-05T01:46:03.558Z,19.37
2017-09-05T01:48:29.581Z,18.13
2017-09-05T01:50:55.625Z,19.10
2017-09-05T01:53:21.673Z,19.57
2017-09-05T01:55:47.708Z,19.70
2017-09-05T01:58:13.738Z,20.07
2017-09-05T02:00:39.799Z,18.47
2017-09-05T02:03:05.817Z,20.70
2017-09-05T02:05:31.847Z,20.67
2017-09-05T02:07:57.849Z,19.70
2017-09-05T02:10:23.881Z,19.30
2017-09-05T02:12:49.905Z,19.00
2017-09-05T02:15:16.109Z,18.20
2017-09-05T02:17:42.130Z,19.20
2017-09-05T02:20:08.161Z,19.60
2017-09-05T02:22:34.210Z,24.60
2017-09-05T02:25:00.238Z,20.57
2017-09-05T02:27:26.261Z,20.70
2017-09-05T02:29:52.281Z,19.83
2017-09-05T02:32:18.339Z,21.80
2017-09-05T02:34:44.377Z,22.93
2017-09-05T02:37:10.405Z,23.07
2017-09-05T02:39:37.192Z,20.00
2017-09-05T02:42:03.237Z,22.60
2017-09-05T02:44:29.262Z,21.73
2017-09-05T02:46:55.293Z,21.97
2017-09-05T02:49:21.312Z,20.73
2017-09-05T02:51:47.364Z,21.37
2017-09-05T02:54:13.399Z,19.73
2017-09-05T02:56:39.460Z,21.33
2017-09-05T02:59:05.487Z,21.27
2017-09-05T03:01:31.525Z,20.93
2017-09-05T03:03:57.558Z,23.87
2017-09-05T03:06:23.611Z,23.13
2017-09-05T03:08:49.636Z,20.97
2017-09-05T03:11:15.649Z,22.43
2017-09-05T03:13:41.672Z,22.20
2017-09-05T03:16:07.716Z,21.73
2017-09-05T03:18:33.761Z,22.53
2017-09-05T03:20:59.810Z,23.50
2017-09-05T03:23:25.860Z,22.33
2017-09-05T03:25:51.900Z,23.03
2017-09-05T03:28:17.932Z,22.43
2017-09-05T03:30:43.965Z,21.37
2017-09-05T03:33:09.978Z,22.87
2017-09-05T03:35:36.024Z,22.67
2017-09-05T03:38:02.087Z,23.87
2017-09-05T03:40:28.121Z,22.50
2017-09-05T03:42:54.129Z,24.37
2017-09-05T03:45:20.165Z,26.47
2017-09-05T03:47:46.213Z,23.67
2017-09-05T03:50:12.266Z,23.63
2017-09-05T03:52:38.298Z,23.93
2017-09-05T03:55:04.331Z,24.37
2017-09-05T03:57:30.372Z,26.97
2017-09-05T03:59:56.404Z,25.57
2017-09-05T04:02:22.429Z,26.20
2017-09-05T04:04:48.467Z,26.10
2017-09-05T04:07:14.489Z,25.33
2017-09-05T04:09:40.537Z,23.90
2017-09-05T04:12:06.594Z,25.23
2017-09-05T04:14:32.662Z,23.50
2017-09-05T04:16:58.715Z,25.03
2017-09-05T04:19:24.745Z,24.43
2017-09-05T04:21:50.781Z,23.97
2017-09-05T04:24:16.809Z,26.00
2017-09-05T04:26:42.849Z,23.80
2017-09-05T04:29:08.865Z,23.13
2017-09-05T04:31:34.899Z,25.47
2017-09-05T04:34:00.932Z,26.50
2017-09-05T04:36:26.989Z,25.17
2017-09-05T04:38:53.044Z,24.90
2017-09-05T04:41:19.077Z,25.97
2017-09-05T04:43:45.113Z,24.97
2017-09-05T04:46:11.151Z,24.90
2017-09-05T04:48:37.179Z,26.20
2017-09-05T04:51:03.249Z,23.07
2017-09-05T04:53:29.282Z,23.07
2017-09-05T04:55:55.305Z,23.03
2017-09-05T04:58:21.329Z,25.90
2017-09-05T05:00:47.370Z,25.30
2017-09-05T05:03:13.417Z,23.70
2017-09-05T05:05:39.445Z,25.77
2017-09-05T05:08:05.488Z,24.87
2017-09-05T05:10:31.521Z,25.83
2017-09-05T05:12:57.569Z,24.17
2017-09-05T05:15:23.590Z,25.20
2017-09-05T05:17:49.629Z,26.97
2017-09-05T05:20:15.657Z,26.03
2017-09-05T05:22:41.752Z,26.73
2017-09-05T05:25:07.853Z,25.83
2017-09-05T05:27:33.881Z,23.40
2017-09-05T05:29:59.936Z,27.97
2017-09-05T05:32:25.952Z,24.70
2017-09-05T05:34:51.973Z,23.23
2017-09-05T05:37:18.098Z,29.20
2017-09-05T05:39:44.133Z,29.00
2017-09-05T05:42:10.161Z,28.50
2017-09-05T05:44:36.221Z,27.30
2017-09-05T05:47:02.245Z,29.73
2017-09-05T05:49:28.352Z,26.70
2017-09-05T05:51:54.393Z,27.60
2017-09-05T05:54:20.427Z,26.40
2017-09-05T05:56:46.457Z,25.87
2017-09-05T05:59:12.465Z,29.90
2017-09-05T06:01:38.642Z,29.70
2017-09-05T06:04:04.685Z,29.50
2017-09-05T06:06:30.731Z,30.37
2017-09-05T06:08:56.757Z,30.70
2017-09-05T06:11:22.811Z,30.27
2017-09-05T06:13:48.856Z,28.70
2017-09-05T06:16:14.912Z,32.60
2017-09-05T06:18:40.957Z,32.77
2017-09-05T06:21:07.025Z,33.73
2017-09-05T06:23:33.080Z,30.70
2017-09-05T06:25:59.122Z,31.70
2017-09-05T06:28:25.261Z,29.63
2017-09-05T06:30:52.025Z,31.83
2017-09-05T06:33:18.081Z,31.30
2017-09-05T06:35:44.149Z,29.90
2017-09-05T06:38:10.197Z,28.30
2017-09-05T06:40:36.220Z,30.17
2017-09-05T06:43:02.265Z,31.50
2017-09-05T06:45:28.324Z,30.73
2017-09-05T06:47:54.385Z,28.60
2017-09-05T06:50:20.410Z,29.73
2017-09-05T06:52:46.456Z,30.17
2017-09-05T06:55:12.473Z,27.90
2017-09-05T06:57:38.524Z,27.80
2017-09-05T07:00:04.524Z,27.10
2017-09-05T07:02:30.577Z,28.67
2017-09-05T07:04:56.593Z,27.43
2017-09-05T07:07:22.648Z,27.67
2017-09-05T07:09:48.671Z,25.43
2017-09-05T07:12:14.677Z,24.80
2017-09-05T07:14:40.730Z,27.60
2017-09-05T07:17:06.767Z,28.87
2017-09-05T07:19:32.822Z,29.47
2017-09-05T07:21:58.852Z,30.03
2017-09-05T07:24:24.894Z,26.03
2017-09-05T07:26:50.934Z,28.17
2017-09-05T07:29:16.998Z,29.33
2017-09-05T07:31:43.017Z,26.47
2017-09-05T07:34:09.053Z,26.93
2017-09-05T07:36:35.104Z,26.83
2017-09-05T07:39:01.160Z,28.80
2017-09-05T07:41:27.208Z,28.20
2017-09-05T07:43:53.265Z,29.30
2017-09-05T07:46:19.322Z,27.87
2017-09-05T07:48:45.365Z,27.73
2017-09-05T07:51:11.408Z,26.90
2017-09-05T07:53:37.442Z,27.10
2017-09-05T07:56:03.443Z,27.37
2017-09-05T07:58:29.485Z,28.37
2017-09-05T08:00:55.530Z,27.10
2017-09-05T08:03:21.551Z,28.17
2017-09-05T08:05:47.552Z,27.20
2017-09-05T08:08:13.589Z,26.17
2017-09-05T08:10:39.617Z,25.53
2017-09-05T08:13:05.645Z,25.23
2017-09-05T08:15:31.700Z,27.30
2017-09-05T08:17:57.717Z,27.70
2017-09-05T08:20:23.773Z,25.30
2017-09-05T08:22:49.825Z,27.73
2017-09-05T08:25:15.853Z,26.17
2017-09-05T08:27:41.906Z,28.80
2017-09-05T08:30:07.965Z,27.23
2017-09-05T08:32:33.978Z,24.67
2017-09-05T08:34:59.991Z,27.43
2017-09-05T08:37:26.049Z,25.17
2017-09-05T08:39:52.085Z,26.10
2017-09-05T08:42:18.081Z,26.57
2017-09-05T08:44:44.085Z,26.53
2017-09-05T08:47:10.116Z,25.90
2017-09-05T08:49:36.133Z,25.17
2017-09-05T08:52:02.153Z,26.27
2017-09-05T08:54:28.161Z,24.37
2017-09-05T08:56:54.190Z,27.87
2017-09-05T08:59:20.249Z,26.77
2017-09-05T09:01:46.271Z,24.50
2017-09-05T09:04:12.293Z,22.90
2017-09-05T09:06:38.340Z,23.83
2017-09-05T09:09:04.345Z,22.80
2017-09-05T09:11:30.353Z,24.50
2017-09-05T09:13:56.361Z,24.57
2017-09-05T09:16:22.361Z,22.17
2017-09-05T09:18:48.374Z,21.03
2017-09-05T09:21:14.413Z,21.87
2017-09-05T09:23:40.440Z,23.23
2017-09-05T09:26:06.470Z,22.57
2017-09-05T09:28:32.493Z,23.73
2017-09-05T09:30:58.489Z,21.87
2017-09-05T09:33:24.595Z,20.93
2017-09-05T09:35:50.639Z,22.77
2017-09-05T09:38:16.643Z,24.33
2017-09-05T09:40:42.661Z,22.00
2017-09-05T09:43:08.672Z,22.00
2017-09-05T09:45:34.690Z,23.00
2017-09-05T09:48:00.702Z,23.40
2017-09-05T09:50:26.753Z,22.90
2017-09-05T09:52:52.785Z,23.40
2017-09-05T09:55:18.817Z,23.53
2017-09-05T09:57:44.809Z,26.30
2017-09-05T10:00:10.865Z,23.33
2017-09-05T10:02:36.879Z,26.43
2017-09-05T10:05:02.906Z,24.40
2017-09-05T10:07:28.909Z,23.70
2017-09-05T10:09:54.934Z,23.43
2017-09-05T10:12:20.945Z,26.40
2017-09-05T10:14:46.965Z,28.00
2017-09-05T10:17:12.983Z,25.00
2017-09-05T10:19:38.994Z,25.33
2017-09-05T10:22:05.037Z,26.47
2017-09-05T10:24:31.043Z,22.90
2017-09-05T10:26:57.061Z,25.40
2017-09-05T10:29:23.096Z,23.50
2017-09-05T10:31:49.109Z,21.83
2017-09-05T10:34:15.122Z,24.13
2017-09-05T10:36:41.131Z,22.40
2017-09-05T10:39:07.141Z,22.93
2017-09-05T10:41:33.177Z,22.33
2017-09-05T10:43:59.208Z,20.53
2017-09-05T10:46:25.235Z,19.80
2017-09-05T10:48:51.253Z,19.10
2017-09-05T10:51:17.272Z,20.57
2017-09-05T10:53:43.293Z,20.07
2017-09-05T10:56:09.346Z,18.70
2017-09-05T10:58:35.381Z,17.10
2017-09-05T11:01:01.396Z,17.10
2017-09-05T11:03:27.476Z,16.83
2017-09-05T11:05:53.502Z,19.10
2017-09-05T11:08:19.513Z,20.93
2017-09-05T11:10:45.533Z,20.03
2017-09-05T11:13:11.567Z,19.97
2017-09-05T11:15:37.606Z,22.03
2017-09-05T11:18:03.638Z,19.67
2017-09-05T11:20:29.674Z,17.20
2017-09-05T11:22:55.725Z,17.20
2017-09-05T11:25:21.795Z,16.67
2017-09-05T11:27:47.826Z,18.47
2017-09-05T11:30:13.849Z,17.97
2017-09-05T11:32:39.864Z,14.17
2017-09-05T11:35:05.869Z,15.23
2017-09-05T11:37:31.895Z,14.83
2017-09-05T11:39:57.926Z,11.87
2017-09-05T11:42:23.937Z,10.10
2017-09-05T11:44:49.965Z,11.80
2017-09-05T11:47:16.048Z,10.20
2017-09-05T11:49:42.054Z,9.43
2017-09-05T11:52:08.094Z,8.77
2017-09-05T11:54:34.130Z,9.63
2017-09-05T11:57:00.177Z,8.47
2017-09-05T11:59:26.204Z,9.13
2017-09-05T12:01:52.266Z,9.03
2017-09-05T12:04:18.320Z,9.93
2017-09-05T12:06:44.324Z,8.77
2017-09-05T12:09:10.342Z,10.23
2017-09-05T12:11:36.362Z,7.83
2017-09-05T12:14:02.400Z,7.23
2017-09-05T12:16:28.414Z,7.73
2017-09-05T12:18:54.438Z,8.10
2017-09-05T12:21:20.453Z,6.67
2017-09-05T12:23:46.457Z,6.50
2017-09-05T12:26:12.502Z,5.70
2017-09-05T12:28:38.537Z,5.50
2017-09-05T12:31:04.554Z,8.07
2017-09-05T12:33:30.634Z,6.37
2017-09-05T12:35:56.685Z,6.83
2017-09-05T12:38:22.735Z,6.70
2017-09-05T12:40:48.768Z,7.30
2017-09-05T12:43:14.809Z,9.03
2017-09-05T12:45:40.880Z,8.87
2017-09-05T12:48:07.003Z,7.60
2017-09-05T12:50:33.088Z,7.03
2017-09-05T12:52:59.149Z,9.20
2017-09-05T12:55:25.232Z,8.07
2017-09-05T12:57:51.285Z,7.87
2017-09-05T13:00:17.324Z,7.47
2017-09-05T13:02:43.382Z,7.50
2017-09-05T13:05:09.454Z,7.00
2017-09-05T13:07:35.513Z,7.13
2017-09-05T13:10:01.565Z,8.00
2017-09-05T13:12:27.617Z,7.03
2017-09-05T13:14:53.654Z,7.27
2017-09-05T13:17:19.786Z,7.07
2017-09-05T13:19:45.873Z,9.73
2017-09-05T13:22:11.922Z,8.17
2017-09-05T13:24:38.029Z,7.53
2017-09-05T13:27:04.105Z,7.57
2017-09-05T13:29:30.168Z,7.80
2017-09-05T13:31:56.245Z,7.53
2017-09-05T13:34:22.328Z,8.90
2017-09-05T13:36:48.457Z,8.10
2017-09-05T13:39:14.517Z,8.00
2017-09-05T13:41:40.564Z,8.40
2017-09-05T13:44:06.628Z,8.37
2017-09-05T13:46:32.677Z,7.33
2017-09-05T13:48:58.726Z,8.17
2017-09-05T13:51:24.746Z,7.00
2017-09-05T13:53:50.804Z,7.57
2017-09-05T13:56:16.870Z,8.60
2017-09-05T13:58:42.900Z,7.13
2017-09-05T14:01:08.945Z,6.90
2017-09-05T14:03:35.034Z,6.40
2017-09-05T14:06:01.122Z,6.00
2017-09-05T14:08:27.153Z,6.60
2017-09-05T14:10:53.203Z,6.70
2017-09-05T14:13:19.228Z,8.77
2017-09-05T14:15:45.264Z,7.50
2017-09-05T14:18:11.316Z,6.77
2017-09-05T14:20:37.346Z,5.80
2017-09-05T14:23:03.377Z,6.40
2017-09-05T14:25:29.441Z,7.30
2017-09-05T14:27:55.524Z,7.47
2017-09-05T14:30:21.597Z,6.83
2017-09-05T14:32:47.636Z,6.50
2017-09-05T14:35:13.738Z,7.90
2017-09-05T14:37:39.921Z,7.60
2017-09-05T14:40:06.002Z,7.50
2017-09-05T14:42:32.030Z,8.33
2017-09-05T14:44:58.065Z,8.00
2017-09-05T14:47:24.097Z,7.17
2017-09-05T14:49:50.152Z,8.33
2017-09-05T14:52:16.221Z,7.47
2017-09-05T14:54:42.276Z,7.17
2017-09-05T14:57:08.317Z,7.20
2017-09-05T14:59:34.413Z,8.40
2017-09-05T15:02:00.482Z,7.40
2017-09-05T15:04:26.545Z,8.40
2017-09-05T15:06:53.069Z,7.67
2017-09-05T15:09:19.309Z,7.47
2017-09-05T15:11:45.413Z,8.97
2017-09-05T15:14:11.528Z,7.97
2017-09-05T15:16:37.656Z,8.00
2017-09-05T15:19:04.551Z,7.53
2017-09-05T15:21:31.772Z,8.10
2017-09-05T15:23:58.663Z,6.83
2017-09-05T15:26:25.826Z,7.37
2017-09-05T15:28:52.036Z,6.97
2017-09-05T15:31:18.768Z,8.17
2017-09-05T15:33:45.268Z,8.80
2017-09-05T15:36:11.846Z,10.00
2017-09-05T15:38:38.008Z,8.43
2017-09-05T15:41:04.052Z,9.00
2017-09-05T15:43:30.872Z,8.13
2017-09-05T15:45:57.121Z,8.30
2017-09-05T15:48:23.153Z,8.67
2017-09-05T15:50:49.186Z,8.30
2017-09-05T15:53:15.649Z,7.03
2017-09-05T15:55:41.906Z,8.30
2017-09-05T15:58:07.985Z,9.27
2017-09-05T16:00:34.013Z,7.77
2017-09-05T16:03:00.056Z,7.90
2017-09-05T16:05:26.105Z,9.03
2017-09-05T16:07:52.127Z,8.07
2017-09-05T16:10:18.206Z,8.10
2017-09-05T16:12:44.255Z,7.53
2017-09-05T16:15:10.320Z,8.63
2017-09-05T16:17:36.390Z,6.90
2017-09-05T16:20:18.928Z,7.63
2017-09-05T16:22:45.086Z,8.13
2017-09-05T16:25:11.291Z,7.40
2017-09-05T16:27:37.364Z,9.07
2017-09-05T16:30:03.418Z,7.90
2017-09-05T16:32:29.450Z,9.17
2017-09-05T16:34:55.530Z,10.17
2017-09-05T16:37:21.565Z,10.13
2017-09-05T16:39:47.612Z,10.90
2017-09-05T16:42:13.698Z,10.90
2017-09-05T16:44:39.768Z,10.97
2017-09-05T16:47:05.826Z,12.17
2017-09-05T16:49:31.883Z,10.47
2017-09-05T16:51:57.926Z,11.90
2017-09-05T16:54:23.957Z,11.23
2017-09-05T16:56:49.998Z,11.33
2017-09-05T16:59:16.064Z,12.67
2017-09-05T17:01:42.144Z,10.70
2017-09-05T17:04:08.999Z,11.50
2017-09-05T17:06:36.578Z,10.67
2017-09-05T17:09:05.187Z,12.40
2017-09-05T17:11:31.311Z,11.87
2017-09-05T17:13:57.384Z,10.80
2017-09-05T17:16:23.505Z,10.67
2017-09-05T17:18:49.605Z,11.10
2017-09-05T17:21:15.675Z,11.63
2017-09-05T17:23:41.718Z,10.87
2017-09-05T17:26:07.798Z,10.63
2017-09-05T17:28:33.825Z,11.23
2017-09-05T17:30:59.897Z,10.93
2017-09-05T17:33:25.980Z,11.70
2017-09-05T17:35:55.149Z,11.57
2017-09-05T17:38:21.274Z,11.90
2017-09-05T17:40:47.317Z,10.97
2017-09-05T17:43:13.381Z,10.93
2017-09-05T17:45:39.457Z,12.37
2017-09-05T17:48:05.567Z,12.57
2017-09-05T17:50:31.656Z,11.47
2017-09-05T17:52:57.749Z,11.63
2017-09-05T17:55:23.810Z,10.53
2017-09-05T17:57:49.858Z,10.20
2017-09-05T18:00:15.951Z,10.07
2017-09-05T18:02:42.032Z,11.03
2017-09-05T18:05:08.074Z,9.87
2017-09-05T18:07:34.132Z,10.63
2017-09-05T18:10:00.337Z,11.57
2017-09-05T18:12:26.413Z,10.30
2017-09-05T18:14:52.430Z,10.07
2017-09-05T18:17:18.485Z,8.63
2017-09-05T18:19:44.610Z,9.87
2017-09-05T18:22:10.690Z,10.17
2017-09-05T18:24:36.800Z,9.90
2017-09-05T18:27:02.865Z,10.90
2017-09-05T18:29:28.945Z,11.97
2017-09-05T18:31:55.020Z,10.20
2017-09-05T18:34:21.085Z,13.43
2017-09-05T18:36:47.238Z,13.40
2017-09-05T18:39:14.322Z,13.63
2017-09-05T18:41:40.385Z,13.10
2017-09-05T18:44:07.334Z,12.03
2017-09-05T18:46:33.498Z,12.07
2017-09-05T18:48:59.626Z,11.77
2017-09-05T18:51:25.737Z,12.30
2017-09-05T18:53:51.786Z,11.93
2017-09-05T18:56:17.897Z,11.00
2017-09-05T18:58:43.958Z,10.30
2017-09-05T19:01:09.981Z,10.70
2017-09-05T19:03:36.037Z,9.70
2017-09-05T19:06:02.084Z,10.00
2017-09-05T19:08:28.138Z,10.23
2017-09-05T19:10:54.251Z,9.60
2017-09-05T19:13:20.275Z,10.90
2017-09-05T19:15:46.359Z,10.93
2017-09-05T19:18:12.398Z,10.93
2017-09-05T19:20:38.457Z,10.50
2017-09-05T19:23:04.534Z,9.97
2017-09-05T19:25:30.616Z,10.03
2017-09-05T19:27:56.651Z,8.67
2017-09-05T19:30:22.777Z,8.60
2017-09-05T19:32:48.803Z,8.80
2017-09-05T19:35:14.825Z,9.87
2017-09-05T19:37:40.858Z,9.73
2017-09-05T19:40:06.922Z,10.00
2017-09-05T19:42:32.977Z,9.33
2017-09-05T19:44:58.997Z,9.33
2017-09-05T19:47:25.033Z,9.70
2017-09-05T19:49:51.323Z,10.00
2017-09-05T19:52:17.520Z,9.60
2017-09-05T19:54:43.645Z,10.50
2017-09-05T19:57:09.803Z,10.57
2017-09-05T19:59:35.874Z,10.27
2017-09-05T20:02:01.955Z,9.60
2017-09-05T20:04:28.035Z,9.30
2017-09-05T20:06:54.109Z,10.07
2017-09-05T20:09:20.177Z,10.03
2017-09-05T20:11:46.213Z,8.93
2017-09-05T20:14:12.293Z,9.67
2017-09-05T20:16:38.329Z,9.63
2017-09-05T20:19:04.398Z,8.37
2017-09-05T20:21:30.445Z,7.93
2017-09-05T20:23:56.489Z,9.10
2017-09-05T20:26:22.512Z,9.07
2017-09-05T20:28:48.575Z,9.30
2017-09-05T20:31:14.577Z,8.33
2017-09-05T20:33:40.648Z,9.27
2017-09-05T20:36:06.701Z,8.47
2017-09-05T20:38:32.768Z,9.70
2017-09-05T20:40:58.809Z,10.20
2017-09-05T20:43:24.846Z,9.67
2017-09-05T20:45:50.885Z,9.43
2017-09-05T20:48:17.311Z,9.90
2017-09-05T20:50:43.574Z,8.77
2017-09-05T20:53:09.790Z,8.63
2017-09-05T20:55:35.830Z,9.50
2017-09-05T20:58:01.869Z,9.30
2017-09-05T21:00:27.913Z,9.10
2017-09-05T21:02:53.976Z,9.87
2017-09-05T21:05:20.041Z,9.57
2017-09-05T21:07:46.080Z,9.27
2017-09-05T21:10:12.137Z,9.73
2017-09-05T21:12:38.190Z,8.90
2017-09-05T21:15:04.254Z,8.80
2017-09-05T21:17:30.286Z,9.40
2017-09-05T21:19:56.319Z,9.10
2017-09-05T21:22:22.376Z,10.27
2017-09-05T21:24:48.453Z,9.50
2017-09-05T21:27:14.489Z,10.73
2017-09-05T21:29:40.557Z,9.97
2017-09-05T21:32:06.595Z,9.23
2017-09-05T21:34:32.661Z,9.67
2017-09-05T21:36:58.748Z,10.10
2017-09-05T21:39:24.816Z,10.57
2017-09-05T21:41:51.566Z,10.57
2017-09-05T21:44:18.352Z,9.93
2017-09-05T21:46:44.397Z,10.50
2017-09-05T21:49:10.438Z,9.70
2017-09-05T21:51:36.502Z,9.63
2017-09-05T21:54:02.560Z,10.03
2017-09-05T21:56:28.629Z,10.10
2017-09-05T21:58:54.686Z,9.40
2017-09-05T22:01:20.742Z,9.67
2017-09-05T22:03:46.807Z,9.70
2017-09-05T22:06:12.858Z,8.70
2017-09-05T22:08:38.916Z,8.83
2017-09-05T22:11:04.978Z,8.70
2017-09-05T22:13:31.033Z,9.20
2017-09-05T22:15:57.063Z,9.10
2017-09-05T22:18:29.385Z,9.40
2017-09-05T22:21:01.486Z,10.17
2017-09-05T22:23:27.522Z,8.30
2017-09-05T22:29:04.097Z,8.90
2017-09-05T22:31:30.132Z,9.07
2017-09-05T22:33:56.161Z,9.83
2017-09-05T22:36:22.216Z,10.93
2017-09-05T22:38:48.267Z,9.40
2017-09-05T22:41:14.331Z,9.53
2017-09-05T22:43:40.400Z,9.70
2017-09-05T22:46:06.446Z,9.50
2017-09-05T22:48:32.481Z,9.90
2017-09-05T22:50:58.546Z,10.70
2017-09-05T22:53:24.632Z,10.07
2017-09-05T22:55:50.685Z,11.00
2017-09-05T22:58:16.710Z,10.23
2017-09-05T23:00:42.731Z,10.60
2017-09-05T23:03:08.777Z,11.03
2017-09-05T23:05:34.849Z,11.60
2017-09-05T23:08:00.885Z,11.40
2017-09-05T23:10:26.932Z,14.30
2017-09-05T23:12:52.999Z,14.33
2017-09-05T23:15:19.061Z,13.20
2017-09-05T23:17:45.081Z,13.40
2017-09-05T23:20:11.126Z,15.17
2017-09-05T23:22:37.166Z,16.93
2017-09-05T23:25:03.246Z,19.00
2017-09-05T23:27:29.282Z,16.60
2017-09-05T23:29:55.298Z,18.40
2017-09-05T23:32:21.333Z,16.53
2017-09-05T23:34:47.425Z,17.90
2017-09-05T23:37:13.547Z,17.97
2017-09-05T23:39:39.567Z,18.97
2017-09-05T23:42:05.601Z,19.27
2017-09-05T23:44:31.633Z,19.07
2017-09-05T23:46:57.664Z,19.63
2017-09-05T23:49:23.692Z,20.23
2017-09-05T23:51:49.728Z,19.10
2017-09-05T23:54:15.761Z,21.20
2017-09-05T23:56:41.827Z,19.80
2017-09-05T23:59:07.889Z,18.37
